createdAt,value
2018-11-12T00:01:45.271Z,2.7
2018-11-12T00:04:45.017Z,2.7
2018-11-12T00:07:45.791Z,2.7
2018-11-12T00:10:44.796Z,2.7
2018-11-12T00:13:45.000Z,2.7
2018-11-12T00:16:44.860Z,2.7
2018-11-12T00:19:44.933Z,2.7
2018-11-12T00:22:45.083Z,2.7
2018-11-12T00:25:45.206Z,2.7
2018-11-12T00:28:44.871Z,2.7
2018-11-12T00:31:44.812Z,2.7
2018-11-12T00:34:44.896Z,2.7
2018-11-12T00:37:44.910Z,2.7
2018-11-12T00:40:44.799Z,2.7
2018-11-12T00:43:44.995Z,2.7
2018-11-12T00:46:45.026Z,2.7
2018-11-12T00:49:44.789Z,2.7
2018-11-12T00:52:44.927Z,2.7
2018-11-12T00:55:44.766Z,2.7
2018-11-12T00:58:44.936Z,2.7
2018-11-12T01:01:45.422Z,2.6
2018-11-12T01:04:45.052Z,2.6
2018-11-12T01:07:44.837Z,2.6
2018-11-12T01:10:45.220Z,2.6
2018-11-12T01:13:45.158Z,2.6
2018-11-12T01:16:44.806Z,2.6
2018-11-12T01:19:45.228Z,2.6
2018-11-12T01:22:45.052Z,2.6
2018-11-12T01:25:45.050Z,2.6
2018-11-12T01:28:44.939Z,2.6
2018-11-12T01:31:44.788Z,2.6
2018-11-12T01:34:45.211Z,2.6
2018-11-12T01:37:44.854Z,2.6
2018-11-12T01:40:44.705Z,2.6
2018-11-12T01:43:45.023Z,2.6
2018-11-12T01:46:44.978Z,2.6
2018-11-12T01:49:45.094Z,2.6
2018-11-12T01:52:44.937Z,2.6
2018-11-12T01:55:45.082Z,2.6
2018-11-12T01:58:44.852Z,2.6
2018-11-12T02:01:46.482Z,2.5
2018-11-12T02:04:46.064Z,2.5
2018-11-12T02:07:44.728Z,2.5
2018-11-12T02:10:44.758Z,2.5
2018-11-12T02:13:44.894Z,2.5
2018-11-12T02:16:44.651Z,2.5
2018-11-12T02:19:44.816Z,2.5
2018-11-12T02:22:44.992Z,2.5
2018-11-12T02:25:45.247Z,2.5
2018-11-12T02:28:45.273Z,2.5
2018-11-12T02:31:44.908Z,2.5
2018-11-12T02:34:44.901Z,2.5
2018-11-12T02:37:44.712Z,2.5
2018-11-12T02:40:44.841Z,2.5
2018-11-12T02:43:44.895Z,2.5
2018-11-12T02:46:45.107Z,2.5
2018-11-12T02:49:44.933Z,2.5
2018-11-12T02:52:45.220Z,2.5
2018-11-12T02:55:44.809Z,2.5
2018-11-12T02:58:44.816Z,2.5
2018-11-12T03:01:44.829Z,2.4
2018-11-12T03:04:44.978Z,2.4
2018-11-12T03:07:46.317Z,2.4
2018-11-12T03:10:44.999Z,2.4
2018-11-12T03:13:44.890Z,2.4
2018-11-12T03:16:44.859Z,2.4
2018-11-12T03:19:45.249Z,2.4
2018-11-12T03:22:45.161Z,2.4
2018-11-12T03:25:45.029Z,2.4
2018-11-12T03:28:44.802Z,2.4
2018-11-12T03:31:44.741Z,2.4
2018-11-12T03:34:44.576Z,2.4
2018-11-12T03:37:44.984Z,2.4
2018-11-12T03:40:44.653Z,2.4
2018-11-12T03:43:44.662Z,2.4
2018-11-12T03:46:44.747Z,2.4
2018-11-12T03:49:44.992Z,2.4
2018-11-12T03:52:44.763Z,2.4
2018-11-12T03:55:44.781Z,2.4
2018-11-12T03:58:45.078Z,2.4
2018-11-12T04:01:45.116Z,2.3
2018-11-12T04:04:44.750Z,2.3
2018-11-12T04:07:44.881Z,2.3
2018-11-12T04:10:44.616Z,2.3
2018-11-12T04:13:44.919Z,2.3
2018-11-12T04:16:45.446Z,2.3
2018-11-12T04:19:44.841Z,2.3
2018-11-12T04:22:45.102Z,2.3
2018-11-12T04:25:44.953Z,2.3
2018-11-12T04:28:44.983Z,2.3
2018-11-12T04:31:44.716Z,2.3
2018-11-12T04:34:44.901Z,2.3
2018-11-12T04:37:45.557Z,2.3
2018-11-12T04:40:44.827Z,2.3
2018-11-12T04:43:44.868Z,2.3
2018-11-12T04:46:44.622Z,2.3
2018-11-12T04:49:45.151Z,2.3
2018-11-12T04:52:44.810Z,2.3
2018-11-12T04:55:44.725Z,2.3
2018-11-12T04:58:44.755Z,2.3
2018-11-12T05:01:45.739Z,2.3
2018-11-12T05:04:44.879Z,2.3
2018-11-12T05:07:44.662Z,2.3
2018-11-12T05:10:44.753Z,2.3
2018-11-12T05:13:44.853Z,2.3
2018-11-12T05:16:47.108Z,2.3
2018-11-12T05:19:44.764Z,2.3
2018-11-12T05:22:45.042Z,2.3
2018-11-12T05:25:44.884Z,2.3
2018-11-12T05:28:45.104Z,2.3
2018-11-12T05:31:44.922Z,2.3
2018-11-12T05:34:45.068Z,2.3
2018-11-12T05:37:47.449Z,2.3
2018-11-12T05:40:44.813Z,2.3
2018-11-12T05:43:44.646Z,2.3
2018-11-12T05:46:44.922Z,2.3
2018-11-12T05:49:45.070Z,2.3
2018-11-12T05:52:44.807Z,2.3
2018-11-12T05:55:45.017Z,2.3
2018-11-12T05:58:45.597Z,2.3
2018-11-12T06:01:44.882Z,2.2
2018-11-12T06:04:45.952Z,2.2
2018-11-12T06:07:44.820Z,2.2
2018-11-12T06:10:45.027Z,2.2
2018-11-12T06:13:45.062Z,2.2
2018-11-12T06:16:44.658Z,2.2
2018-11-12T06:19:44.774Z,2.2
2018-11-12T06:22:47.275Z,2.2
2018-11-12T06:25:44.892Z,2.2
2018-11-12T06:28:44.796Z,2.2
2018-11-12T06:31:44.681Z,2.2
2018-11-12T06:34:44.676Z,2.2
2018-11-12T06:37:44.866Z,2.2
2018-11-12T06:40:44.679Z,2.2
2018-11-12T06:43:44.683Z,2.2
2018-11-12T06:46:44.811Z,2.2
2018-11-12T06:49:44.525Z,2.2
2018-11-12T06:52:46.146Z,2.2
2018-11-12T06:55:45.056Z,2.2
2018-11-12T06:58:44.793Z,2.2
2018-11-12T07:01:44.866Z,2.2
2018-11-12T07:04:44.789Z,2.2
2018-11-12T07:07:44.938Z,2.2
2018-11-12T07:10:44.799Z,2.2
2018-11-12T07:13:44.896Z,2.2
2018-11-12T07:16:44.954Z,2.2
2018-11-12T07:19:45.006Z,2.2
2018-11-12T07:22:44.926Z,2.2
2018-11-12T07:25:44.964Z,2.2
2018-11-12T07:28:44.946Z,2.2
2018-11-12T07:31:44.898Z,2.2
2018-11-12T07:34:44.665Z,2.2
2018-11-12T07:37:44.928Z,2.2
2018-11-12T07:40:44.633Z,2.2
2018-11-12T07:43:45.114Z,2.2
2018-11-12T07:46:44.991Z,2.2
2018-11-12T07:49:45.546Z,2.2
2018-11-12T07:52:44.949Z,2.2
2018-11-12T07:55:44.572Z,2.2
2018-11-12T07:58:44.751Z,2.2
2018-11-12T08:01:44.508Z,2.1
2018-11-12T08:04:44.650Z,2.1
2018-11-12T08:07:44.779Z,2.1
2018-11-12T08:10:44.734Z,2.1
2018-11-12T08:13:44.584Z,2.1
2018-11-12T08:16:44.640Z,2.1
2018-11-12T08:19:45.606Z,2.1
2018-11-12T08:22:45.020Z,2.1
2018-11-12T08:25:44.595Z,2.1
2018-11-12T08:28:44.774Z,2.1
2018-11-12T08:31:45.138Z,2.1
2018-11-12T08:34:44.822Z,2.1
2018-11-12T08:37:44.788Z,2.1
2018-11-12T08:40:48.214Z,2.1
2018-11-12T08:43:46.021Z,2.1
2018-11-12T08:46:44.892Z,2.1
2018-11-12T08:49:47.647Z,2.1
2018-11-12T08:52:44.648Z,2.1
2018-11-12T08:55:46.836Z,2.1
2018-11-12T08:58:44.615Z,2.1
2018-11-12T09:01:44.677Z,2.1
2018-11-12T09:04:44.844Z,2.1
2018-11-12T09:07:44.962Z,2.1
2018-11-12T09:10:45.309Z,2.1
2018-11-12T09:13:47.499Z,2.1
2018-11-12T09:16:44.714Z,2.1
2018-11-12T09:19:44.608Z,2.1
2018-11-12T09:22:44.651Z,2.1
2018-11-12T09:25:44.544Z,2.1
2018-11-12T09:28:44.684Z,2.1
2018-11-12T09:31:44.589Z,2.1
2018-11-12T09:34:44.987Z,2.1
2018-11-12T09:37:44.950Z,2.1
2018-11-12T09:40:44.469Z,2.1
2018-11-12T09:43:44.590Z,2.1
2018-11-12T09:46:45.071Z,2.1
2018-11-12T09:49:44.854Z,2.1
2018-11-12T09:52:45.306Z,2.1
2018-11-12T09:55:45.100Z,2.1
2018-11-12T09:58:45.570Z,2.1
2018-11-12T10:01:56.075Z,2
2018-11-12T10:05:06.684Z,2
2018-11-12T10:08:18.338Z,2
2018-11-12T10:11:04.437Z,2
2018-11-12T10:14:23.767Z,2
2018-11-12T10:17:01.118Z,2
2018-11-12T10:19:46.650Z,2
2018-11-12T10:22:44.576Z,2
2018-11-12T10:25:44.680Z,2
2018-11-12T10:28:44.815Z,2
2018-11-12T10:31:44.662Z,2
2018-11-12T10:34:44.574Z,2
2018-11-12T10:37:44.614Z,2
2018-11-12T10:40:45.823Z,2
2018-11-12T10:43:44.863Z,2
2018-11-12T10:46:44.494Z,2
2018-11-12T10:49:44.845Z,2
2018-11-12T10:52:45.152Z,2
2018-11-12T10:55:48.301Z,2
2018-11-12T10:58:44.832Z,2
2018-11-12T11:01:44.792Z,2
2018-11-12T11:04:44.487Z,2
2018-11-12T11:07:44.904Z,2
2018-11-12T11:10:44.537Z,2
2018-11-12T11:13:45.716Z,2
2018-11-12T11:16:44.617Z,2
2018-11-12T11:19:45.117Z,2
2018-11-12T11:22:44.497Z,2
2018-11-12T11:25:46.292Z,2
2018-11-12T11:28:44.345Z,2
2018-11-12T11:31:45.465Z,2
2018-11-12T11:34:44.486Z,2
2018-11-12T11:37:45.647Z,2
2018-11-12T11:40:46.553Z,2
2018-11-12T11:43:44.389Z,2
2018-11-12T11:46:44.434Z,2
2018-11-12T11:49:45.008Z,2
2018-11-12T11:52:44.554Z,2
2018-11-12T11:55:44.537Z,2
2018-11-12T11:58:44.609Z,2
2018-11-12T12:01:45.972Z,2
2018-11-12T12:04:44.900Z,2
2018-11-12T12:07:45.360Z,2
2018-11-12T12:10:44.609Z,2
2018-11-12T12:13:45.251Z,2
2018-11-12T12:16:45.158Z,2
2018-11-12T12:19:45.564Z,2
2018-11-12T12:22:44.954Z,2
2018-11-12T12:25:47.896Z,2
2018-11-12T12:28:44.568Z,2
2018-11-12T12:31:44.513Z,2
2018-11-12T12:34:45.639Z,2
2018-11-12T12:37:45.396Z,2
2018-11-12T12:40:45.015Z,2
2018-11-12T12:43:44.868Z,2
2018-11-12T12:46:44.377Z,2
2018-11-12T12:49:46.527Z,2
2018-11-12T12:52:44.573Z,2
2018-11-12T12:55:48.429Z,2
2018-11-12T12:58:44.914Z,2
2018-11-12T13:01:47.499Z,1.9
2018-11-12T13:04:46.155Z,1.9
2018-11-12T13:07:44.695Z,1.9
2018-11-12T13:10:44.883Z,1.9
2018-11-12T13:13:45.426Z,1.9
2018-11-12T13:16:44.880Z,1.9
2018-11-12T13:19:46.216Z,1.9
2018-11-12T13:22:44.470Z,1.9
2018-11-12T13:25:44.581Z,1.9
2018-11-12T13:28:44.920Z,1.9
2018-11-12T13:31:44.597Z,1.9
2018-11-12T13:34:44.706Z,1.9
2018-11-12T13:37:44.781Z,1.9
2018-11-12T13:40:44.692Z,1.9
2018-11-12T13:43:44.991Z,1.9
2018-11-12T13:46:44.486Z,1.9
2018-11-12T13:49:44.323Z,1.9
2018-11-12T13:52:45.103Z,1.9
2018-11-12T13:55:45.067Z,1.9
2018-11-12T13:58:44.484Z,1.9
2018-11-12T14:01:44.742Z,1.9
2018-11-12T14:04:44.895Z,1.9
2018-11-12T14:07:44.397Z,1.9
2018-11-12T14:10:44.363Z,1.9
2018-11-12T14:13:44.978Z,1.9
2018-11-12T14:16:44.346Z,1.9
2018-11-12T14:19:44.671Z,1.9
2018-11-12T14:22:44.925Z,1.9
2018-11-12T14:25:44.321Z,1.9
2018-11-12T14:28:48.431Z,1.9
2018-11-12T14:31:45.181Z,1.9
2018-11-12T14:34:44.502Z,1.9
2018-11-12T14:37:45.008Z,1.9
2018-11-12T14:40:44.915Z,1.9
2018-11-12T14:43:45.633Z,1.9
2018-11-12T14:46:44.754Z,1.9
2018-11-12T14:49:44.591Z,1.9
2018-11-12T14:52:44.652Z,1.9
2018-11-12T14:55:44.870Z,1.9
2018-11-12T14:58:44.513Z,1.9
2018-11-12T15:01:46.420Z,1.9
2018-11-12T15:04:45.111Z,1.9
2018-11-12T15:07:44.481Z,1.9
2018-11-12T15:10:44.620Z,1.9
2018-11-12T15:13:44.302Z,1.9
2018-11-12T15:16:44.405Z,1.9
2018-11-12T15:19:44.604Z,1.9
2018-11-12T15:22:46.929Z,1.9
2018-11-12T15:25:44.318Z,1.9
2018-11-12T15:28:45.109Z,1.9
2018-11-12T15:31:44.929Z,1.9
2018-11-12T15:34:44.623Z,1.9
2018-11-12T15:37:46.735Z,1.9
2018-11-12T15:40:44.621Z,1.9
2018-11-12T15:43:44.538Z,1.9
2018-11-12T15:46:44.367Z,1.9
2018-11-12T15:49:44.933Z,1.9
2018-11-12T15:52:44.590Z,1.9
2018-11-12T15:55:44.364Z,1.9
2018-11-12T15:58:44.362Z,1.9
2018-11-12T16:01:44.446Z,1.9
2018-11-12T16:04:44.388Z,1.9
2018-11-12T16:07:44.684Z,1.9
2018-11-12T16:10:44.523Z,1.9
2018-11-12T16:13:44.596Z,1.9
2018-11-12T16:16:44.327Z,1.9
2018-11-12T16:19:44.788Z,1.9
2018-11-12T16:22:44.679Z,1.9
2018-11-12T16:25:44.910Z,1.9
2018-11-12T16:28:44.406Z,1.9
2018-11-12T16:31:44.526Z,1.9
2018-11-12T16:34:44.477Z,1.9
2018-11-12T16:37:44.679Z,1.9
2018-11-12T16:40:44.510Z,1.9
2018-11-12T16:43:44.973Z,1.9
2018-11-12T16:46:44.451Z,1.9
2018-11-12T16:49:44.643Z,1.9
2018-11-12T16:52:44.928Z,1.9
2018-11-12T16:55:44.796Z,1.9
2018-11-12T16:58:44.492Z,1.9
2018-11-12T17:01:44.393Z,1.9
2018-11-12T17:04:44.409Z,1.9
2018-11-12T17:07:44.378Z,1.9
2018-11-12T17:10:44.445Z,1.9
2018-11-12T17:13:45.106Z,1.9
2018-11-12T17:16:44.340Z,1.9
2018-11-12T17:19:44.383Z,1.9
2018-11-12T17:22:44.457Z,1.9
2018-11-12T17:25:44.279Z,1.9
2018-11-12T17:28:44.513Z,1.9
2018-11-12T17:31:44.463Z,1.9
2018-11-12T17:34:44.415Z,1.9
2018-11-12T17:37:44.611Z,1.9
2018-11-12T17:40:44.818Z,1.9
2018-11-12T17:43:44.963Z,1.9
2018-11-12T17:46:44.454Z,1.9
2018-11-12T17:49:44.892Z,1.9
2018-11-12T17:52:44.569Z,1.9
2018-11-12T17:55:44.656Z,1.9
2018-11-12T17:58:44.663Z,1.9
2018-11-12T18:01:44.701Z,1.8
2018-11-12T18:04:44.820Z,1.8
2018-11-12T18:07:48.468Z,1.8
2018-11-12T18:10:44.536Z,1.8
2018-11-12T18:13:46.604Z,1.8
2018-11-12T18:16:44.479Z,1.8
2018-11-12T18:19:45.602Z,1.8
2018-11-12T18:22:44.480Z,1.8
2018-11-12T18:25:44.580Z,1.8
2018-11-12T18:28:44.593Z,1.8
2018-11-12T18:31:48.906Z,1.8
2018-11-12T18:34:45.429Z,1.8
2018-11-12T18:37:45.898Z,1.8
2018-11-12T18:40:44.446Z,1.8
2018-11-12T18:43:46.986Z,1.8
2018-11-12T18:46:44.746Z,1.8
2018-11-12T18:49:44.416Z,1.8
2018-11-12T18:52:47.069Z,1.8
2018-11-12T18:55:44.577Z,1.8
2018-11-12T18:58:44.219Z,1.8
2018-11-12T19:01:44.303Z,1.8
2018-11-12T19:04:44.451Z,1.8
2018-11-12T19:07:44.526Z,1.8
2018-11-12T19:10:46.008Z,1.8
2018-11-12T19:13:44.938Z,1.8
2018-11-12T19:16:44.343Z,1.8
2018-11-12T19:19:44.339Z,1.8
2018-11-12T19:22:44.949Z,1.8
2018-11-12T19:25:44.345Z,1.8
2018-11-12T19:28:44.480Z,1.8
2018-11-12T19:31:44.565Z,1.8
2018-11-12T19:34:44.659Z,1.8
2018-11-12T19:37:44.513Z,1.8
2018-11-12T19:40:46.442Z,1.8
2018-11-12T19:43:44.266Z,1.8
2018-11-12T19:46:44.420Z,1.8
2018-11-12T19:49:44.778Z,1.8
2018-11-12T19:52:44.197Z,1.8
2018-11-12T19:55:44.335Z,1.8
2018-11-12T19:58:44.327Z,1.8
2018-11-12T20:01:44.247Z,2
2018-11-12T20:04:44.358Z,2
2018-11-12T20:07:44.704Z,2
2018-11-12T20:10:44.458Z,2
2018-11-12T20:13:44.403Z,2
2018-11-12T20:16:44.348Z,2
2018-11-12T20:19:44.554Z,2
2018-11-12T20:22:44.793Z,2
2018-11-12T20:25:44.637Z,2
2018-11-12T20:28:44.480Z,2
2018-11-12T20:31:44.328Z,2
2018-11-12T20:34:44.431Z,2
2018-11-12T20:37:44.879Z,2
2018-11-12T20:40:44.512Z,2
2018-11-12T20:43:44.796Z,2
2018-11-12T20:46:44.582Z,2
2018-11-12T20:49:44.256Z,2
2018-11-12T20:52:46.150Z,2
2018-11-12T20:55:47.073Z,2
2018-11-12T20:58:44.393Z,2
2018-11-12T21:01:45.254Z,2.1
2018-11-12T21:04:44.615Z,2.1
2018-11-12T21:07:44.614Z,2.1
2018-11-12T21:10:44.328Z,2.1
2018-11-12T21:13:44.629Z,2.1
2018-11-12T21:16:44.354Z,2.1
2018-11-12T21:19:44.312Z,2.1
2018-11-12T21:22:44.530Z,2.1
2018-11-12T21:25:44.170Z,2.1
2018-11-12T21:28:45.285Z,2.1
2018-11-12T21:31:44.459Z,2.1
2018-11-12T21:34:44.258Z,2.1
2018-11-12T21:37:44.444Z,2.1
2018-11-12T21:40:44.203Z,2.1
2018-11-12T21:43:47.128Z,2.1
2018-11-12T21:46:44.323Z,2.1
2018-11-12T21:49:45.132Z,2.1
2018-11-12T21:52:44.315Z,2.1
2018-11-12T21:55:44.462Z,2.1
2018-11-12T21:58:46.280Z,2.1
2018-11-12T22:01:44.431Z,2.2
2018-11-12T22:04:44.667Z,2.2
2018-11-12T22:07:44.308Z,2.2
2018-11-12T22:10:44.623Z,2.2
2018-11-12T22:13:44.875Z,2.2
2018-11-12T22:16:44.669Z,2.2
2018-11-12T22:19:46.860Z,2.2
2018-11-12T22:22:44.423Z,2.2
2018-11-12T22:25:44.445Z,2.2
2018-11-12T22:28:44.297Z,2.2
2018-11-12T22:31:44.498Z,2.2
2018-11-12T22:34:44.185Z,2.2
2018-11-12T22:37:45.306Z,2.2
2018-11-12T22:40:44.318Z,2.2
2018-11-12T22:43:45.158Z,2.2
2018-11-12T22:46:44.372Z,2.2
2018-11-12T22:49:44.360Z,2.2
2018-11-12T22:52:44.256Z,2.2
2018-11-12T22:55:44.338Z,2.2
2018-11-12T22:58:44.865Z,2.2
2018-11-12T23:01:44.201Z,2.3
2018-11-12T23:04:44.271Z,2.3
2018-11-12T23:07:44.382Z,2.3
2018-11-12T23:10:44.145Z,2.3
2018-11-12T23:13:44.557Z,2.3
2018-11-12T23:16:44.485Z,2.3
2018-11-12T23:19:46.278Z,2.3
2018-11-12T23:22:44.488Z,2.3
2018-11-12T23:25:44.783Z,2.3
2018-11-12T23:28:44.419Z,2.3
2018-11-12T23:31:44.254Z,2.3
2018-11-12T23:34:44.184Z,2.3
2018-11-12T23:37:44.460Z,2.3
2018-11-12T23:40:44.366Z,2.3
2018-11-12T23:43:44.323Z,2.3
2018-11-12T23:46:45.492Z,2.3
2018-11-12T23:49:44.508Z,2.3
2018-11-12T23:52:44.489Z,2.3
2018-11-12T23:55:44.406Z,2.3
2018-11-12T23:58:44.857Z,2.3
